Time;durP1;ratioP1;P1;durP2;ratioP2;P2;SDS_P1;SDS_P2;PMS_P1;PMS_P2;Temp;Humidity;BMP_temperature;BMP_pressure;BME280_temperature;BME280_humidity;BME280_pressure;Samples;Min_cycle;Max_cycle;Signal;HPM_P1;HPM_P2
2023/07/26 00:01:02;;;;;;;5.10;0.95;;;18.80;99.90;;;;;;4990933;28;20034;-84
2023/07/26 00:03:39;;;;;;;3.58;1.13;;;18.90;99.90;;;;;;4990395;28;20026;-83
2023/07/26 00:06:04;;;;;;;4.65;1.00;;;18.90;99.90;;;;;;4990926;28;20035;-84
2023/07/26 00:08:30;;;;;;;5.35;0.85;;;18.90;99.90;;;;;;4990768;28;20034;-85
2023/07/26 00:10:56;;;;;;;3.08;1.00;;;19.00;99.90;;;;;;4990424;28;20034;-83
2023/07/26 00:13:21;;;;;;;2.83;1.13;;;19.00;99.90;;;;;;4992099;28;20023;-85
2023/07/26 00:15:47;;;;;;;3.78;0.88;;;19.10;99.90;;;;;;4991733;28;20034;-85
2023/07/26 00:18:13;;;;;;;8.65;2.08;;;19.10;99.90;;;;;;4990708;28;20024;-85
2023/07/26 00:20:38;;;;;;;5.05;1.20;;;19.10;99.90;;;;;;4991615;28;20113;-85
2023/07/26 00:23:04;;;;;;;2.63;1.00;;;19.10;99.90;;;;;;4990286;28;20022;-85
2023/07/26 00:25:30;;;;;;;2.88;1.02;;;19.10;99.90;;;;;;4991070;28;20394;-84
2023/07/26 00:27:55;;;;;;;1.88;0.93;;;19.10;99.90;;;;;;4989890;28;20491;-85
2023/07/26 00:30:21;;;;;;;2.05;0.90;;;19.20;99.90;;;;;;4991256;28;20495;-84
2023/07/26 00:32:46;;;;;;;2.22;1.02;;;19.20;99.90;;;;;;4991574;28;20069;-84
2023/07/26 00:35:24;;;;;;;5.88;0.82;;;19.30;99.90;;;;;;4990427;28;20099;-85
2023/07/26 00:37:50;;;;;;;9.13;0.88;;;19.40;99.90;;;;;;4989828;28;20026;-84
2023/07/26 00:40:16;;;;;;;3.92;1.08;;;19.40;99.90;;;;;;4990610;28;20063;-85
2023/07/26 00:42:41;;;;;;;4.72;0.90;;;19.50;99.90;;;;;;4988874;28;20384;-84
2023/07/26 00:45:07;;;;;;;4.53;1.05;;;19.50;99.90;;;;;;4990388;28;20035;-84
2023/07/26 00:47:33;;;;;;;1.58;0.85;;;19.50;99.90;;;;;;4989437;28;20084;-84
2023/07/26 00:49:59;;;;;;;2.50;1.10;;;19.50;99.90;;;;;;4990790;28;20411;-84
2023/07/26 00:52:25;;;;;;;2.13;1.05;;;19.40;99.90;;;;;;4991538;28;20506;-86
2023/07/26 00:54:55;;;;;;;2.22;1.00;;;19.50;99.90;;;;;;4991518;28;20361;-86
2023/07/26 00:57:21;;;;;;;3.40;1.30;;;19.50;99.90;;;;;;4990404;28;20079;-86
2023/07/26 00:59:47;;;;;;;3.70;1.15;;;19.40;99.90;;;;;;4992008;28;20059;-86
2023/07/26 01:02:12;;;;;;;2.67;1.15;;;19.40;99.90;;;;;;4990938;28;20415;-84
2023/07/26 01:04:38;;;;;;;3.13;1.30;;;19.40;99.90;;;;;;4990984;28;20056;-84
2023/07/26 01:07:27;;;;;;;1.65;1.10;;;19.30;99.90;;;;;;4989068;28;20029;-85
2023/07/26 01:10:13;;;;;;;4.75;0.88;;;19.20;99.90;;;;;;4991106;28;20022;-86
2023/07/26 01:13:11;;;;;;;3.50;1.30;;;19.10;99.90;;;;;;4989310;28;20019;-86
2023/07/26 01:15:40;;;;;;;2.78;1.00;;;19.10;99.90;;;;;;4989638;28;20115;-85
2023/07/26 01:18:11;;;;;;;2.10;1.40;;;19.10;99.90;;;;;;4989001;28;20030;-84
2023/07/26 01:20:37;;;;;;;2.58;1.10;;;19.00;99.90;;;;;;4991180;28;20145;-85
2023/07/26 01:23:03;;;;;;;2.90;1.00;;;19.00;99.90;;;;;;4991311;28;20546;-86
2023/07/26 01:25:28;;;;;;;4.15;1.10;;;19.00;99.90;;;;;;4989831;28;20030;-86
2023/07/26 01:27:54;;;;;;;5.97;1.20;;;19.00;99.90;;;;;;4989831;28;20495;-86
2023/07/26 01:30:20;;;;;;;2.30;1.05;;;18.90;99.90;;;;;;4990992;28;20034;-85
2023/07/26 01:32:50;;;;;;;2.92;1.17;;;19.00;99.90;;;;;;4990872;28;20114;-86
2023/07/26 01:35:17;;;;;;;6.47;0.93;;;18.90;99.90;;;;;;4989705;28;20089;-86
2023/07/26 01:37:43;;;;;;;2.28;1.02;;;18.80;99.90;;;;;;4988463;28;20036;-86
2023/07/26 01:40:09;;;;;;;2.30;0.98;;;18.80;99.90;;;;;;4989943;28;20414;-86
2023/07/26 01:42:36;;;;;;;2.10;0.80;;;18.80;99.90;;;;;;4989590;28;20046;-86
2023/07/26 01:45:03;;;;;;;1.75;0.95;;;18.80;99.90;;;;;;4989753;28;20069;-86
2023/07/26 01:47:29;;;;;;;7.68;2.75;;;18.80;99.90;;;;;;4990529;28;20021;-86
2023/07/26 01:49:55;;;;;;;4.00;1.20;;;18.80;99.90;;;;;;4990687;28;20022;-86
2023/07/26 01:52:21;;;;;;;4.30;1.10;;;18.70;99.90;;;;;;4990726;28;20018;-85
2023/07/26 01:54:47;;;;;;;2.05;0.77;;;18.70;99.90;;;;;;4989416;28;20430;-85
2023/07/26 01:57:12;;;;;;;5.85;1.17;;;18.70;99.90;;;;;;4988511;28;20027;-85
2023/07/26 01:59:38;;;;;;;14.10;0.93;;;18.70;99.90;;;;;;4989253;28;20026;-86
2023/07/26 02:02:04;;;;;;;3.08;1.15;;;18.60;99.90;;;;;;4988946;28;20511;-85
2023/07/26 02:04:29;;;;;;;4.93;1.15;;;18.60;99.90;;;;;;4990058;28;20045;-85
2023/07/26 02:06:55;;;;;;;3.88;1.10;;;18.50;99.90;;;;;;4990198;28;20044;-86
2023/07/26 02:09:21;;;;;;;3.45;1.13;;;18.50;99.90;;;;;;4989854;28;20056;-86
2023/07/26 02:11:46;;;;;;;3.22;1.13;;;18.50;99.90;;;;;;4988440;28;20510;-85
2023/07/26 02:14:13;;;;;;;2.78;1.10;;;18.50;99.90;;;;;;4989051;28;20050;-86
2023/07/26 02:16:39;;;;;;;2.88;1.30;;;18.40;99.90;;;;;;4989706;28;20042;-86
2023/07/26 02:19:05;;;;;;;3.10;0.98;;;18.40;99.90;;;;;;4988253;28;20030;-85
2023/07/26 02:21:30;;;;;;;4.68;1.60;;;18.40;99.90;;;;;;4988975;28;20393;-86
2023/07/26 02:23:56;;;;;;;5.60;0.93;;;18.40;99.90;;;;;;4990272;28;20030;-86
2023/07/26 02:26:21;;;;;;;3.10;1.13;;;18.30;99.90;;;;;;4989916;28;20053;-86
2023/07/26 02:28:47;;;;;;;4.70;1.20;;;18.30;99.90;;;;;;4988636;28;20493;-86
2023/07/26 02:31:13;;;;;;;6.68;1.30;;;18.30;99.90;;;;;;4988577;28;20403;-87
2023/07/26 02:33:38;;;;;;;4.38;1.42;;;18.20;99.90;;;;;;4990206;28;20594;-87
2023/07/26 02:36:04;;;;;;;2.95;1.42;;;18.10;99.90;;;;;;4990098;28;20113;-87
2023/07/26 02:38:30;;;;;;;6.25;1.40;;;18.10;99.90;;;;;;4989892;28;20022;-86
2023/07/26 02:40:55;;;;;;;3.33;1.38;;;18.20;99.90;;;;;;4989862;28;20046;-86
2023/07/26 02:43:21;;;;;;;7.32;1.48;;;18.20;99.90;;;;;;4990020;28;20029;-87
2023/07/26 02:45:47;;;;;;;4.10;1.42;;;18.20;99.90;;;;;;4988339;28;20113;-86
2023/07/26 02:48:13;;;;;;;2.95;1.25;;;18.20;99.90;;;;;;4988724;28;20065;-86
2023/07/26 02:50:38;;;;;;;3.58;1.58;;;18.20;99.90;;;;;;4989682;28;20037;-86
2023/07/26 02:53:04;;;;;;;5.97;1.45;;;18.20;99.90;;;;;;4989465;28;20092;-86
2023/07/26 02:55:29;;;;;;;6.07;1.48;;;18.10;99.90;;;;;;4989435;28;20074;-86
2023/07/26 02:57:55;;;;;;;6.05;1.33;;;18.10;99.90;;;;;;4988313;28;20046;-86
2023/07/26 03:00:21;;;;;;;5.85;1.10;;;18.10;99.90;;;;;;4989710;28;20105;-87
2023/07/26 03:02:46;;;;;;;6.30;1.83;;;18.10;99.90;;;;;;4989980;28;20034;-86
2023/07/26 03:05:12;;;;;;;12.85;1.85;;;18.10;99.90;;;;;;4988385;28;20080;-86
2023/07/26 03:07:38;;;;;;;2.70;1.27;;;18.20;99.90;;;;;;4988527;28;20061;-86
2023/07/26 03:10:03;;;;;;;4.75;1.20;;;18.20;99.90;;;;;;4989553;28;20030;-85
2023/07/26 03:12:29;;;;;;;3.55;1.23;;;18.20;99.90;;;;;;4990768;28;20402;-86
2023/07/26 03:14:55;;;;;;;3.60;1.65;;;18.20;99.90;;;;;;4988158;28;20042;-86
2023/07/26 03:17:20;;;;;;;4.75;1.40;;;18.20;99.90;;;;;;4988656;28;20030;-86
2023/07/26 03:19:46;;;;;;;5.25;1.45;;;18.10;99.90;;;;;;4989198;28;20500;-85
2023/07/26 03:22:11;;;;;;;3.22;1.48;;;18.10;99.90;;;;;;4989529;28;20053;-84
2023/07/26 03:24:37;;;;;;;3.50;1.13;;;18.00;99.90;;;;;;4989868;28;20120;-87
2023/07/26 03:27:03;;;;;;;3.60;1.40;;;18.00;99.90;;;;;;4989433;28;20025;-87
2023/07/26 03:29:28;;;;;;;5.35;1.70;;;18.00;99.90;;;;;;4989093;28;20035;-86
2023/07/26 03:31:54;;;;;;;2.63;1.25;;;17.90;99.90;;;;;;4992838;28;20030;-87
2023/07/26 03:34:20;;;;;;;6.72;1.45;;;17.90;99.90;;;;;;4992757;28;20049;-87
2023/07/26 03:36:45;;;;;;;5.10;1.90;;;17.80;99.90;;;;;;4992812;28;20039;-85
2023/07/26 03:39:11;;;;;;;5.25;1.48;;;17.80;99.90;;;;;;4991914;28;20372;-85
2023/07/26 03:41:37;;;;;;;3.42;1.50;;;17.80;99.90;;;;;;4991647;28;20149;-86
2023/07/26 03:44:02;;;;;;;3.58;1.35;;;17.80;99.90;;;;;;4991903;28;20042;-86
2023/07/26 03:46:28;;;;;;;6.10;1.63;;;17.80;99.90;;;;;;4992644;28;20109;-85
2023/07/26 03:48:54;;;;;;;6.28;1.60;;;17.80;99.90;;;;;;4992826;28;20027;-86
2023/07/26 03:51:19;;;;;;;5.07;1.98;;;17.80;99.90;;;;;;4992376;28;20403;-87
2023/07/26 03:53:45;;;;;;;4.93;1.80;;;17.90;99.90;;;;;;4992604;28;20058;-86
2023/07/26 03:56:10;;;;;;;4.53;1.65;;;17.90;99.90;;;;;;4992416;28;20038;-85
2023/07/26 03:58:36;;;;;;;4.90;1.60;;;17.90;99.90;;;;;;4991844;28;20134;-86
2023/07/26 04:01:02;;;;;;;2.85;1.17;;;17.90;99.90;;;;;;4992498;28;20023;-85
2023/07/26 04:03:27;;;;;;;3.03;1.35;;;17.90;99.90;;;;;;4992343;28;20083;-86
2023/07/26 04:05:53;;;;;;;7.72;1.15;;;17.90;99.90;;;;;;4992520;28;20034;-84
2023/07/26 04:08:18;;;;;;;3.40;1.40;;;17.90;99.90;;;;;;4991093;28;20023;-86
2023/07/26 04:10:44;;;;;;;6.55;1.70;;;18.00;99.90;;;;;;4992337;28;20030;-85
2023/07/26 04:13:10;;;;;;;2.63;1.10;;;18.00;99.90;;;;;;4992312;28;20027;-86
2023/07/26 04:15:35;;;;;;;4.57;1.15;;;18.20;99.90;;;;;;4992165;28;20038;-86
2023/07/26 04:18:01;;;;;;;4.65;1.10;;;18.40;99.90;;;;;;4990918;28;20036;-85
2023/07/26 04:20:27;;;;;;;4.32;1.00;;;18.60;99.90;;;;;;4992063;28;20483;-85
2023/07/26 04:22:52;;;;;;;1.38;0.95;;;18.80;99.90;;;;;;4990909;28;20115;-85
2023/07/26 04:25:18;;;;;;;5.43;1.10;;;18.90;99.90;;;;;;4990702;28;20027;-85
2023/07/26 04:27:43;;;;;;;3.15;0.98;;;19.00;99.90;;;;;;4990815;28;20392;-85
2023/07/26 04:30:09;;;;;;;3.30;0.90;;;19.10;99.90;;;;;;4992324;28;20489;-86
2023/07/26 04:32:35;;;;;;;3.78;0.90;;;19.10;99.90;;;;;;4991868;28;20032;-86
2023/07/26 04:35:00;;;;;;;2.67;1.25;;;19.20;99.90;;;;;;4991793;28;20046;-85
2023/07/26 04:37:26;;;;;;;2.50;1.20;;;19.20;99.90;;;;;;4991687;28;20087;-86
2023/07/26 04:39:52;;;;;;;5.88;0.90;;;19.20;99.90;;;;;;4991766;28;20053;-85
2023/07/26 04:42:18;;;;;;;2.60;0.93;;;19.30;99.90;;;;;;4991320;28;20054;-84
2023/07/26 04:44:44;;;;;;;3.03;1.30;;;19.30;99.90;;;;;;4990486;28;20026;-85
2023/07/26 04:47:11;;;;;;;2.35;1.25;;;19.40;99.90;;;;;;4989700;28;20023;-85
2023/07/26 04:49:37;;;;;;;4.28;1.83;;;19.50;99.90;;;;;;4989620;28;20525;-85
2023/07/26 04:52:03;;;;;;;6.88;1.33;;;19.70;99.90;;;;;;4991207;28;20076;-84
2023/07/26 04:54:28;;;;;;;2.10;0.95;;;19.80;99.90;;;;;;4990957;28;20050;-85
2023/07/26 04:56:54;;;;;;;5.47;1.25;;;19.90;99.90;;;;;;4989918;28;20026;-85
2023/07/26 04:59:19;;;;;;;8.82;1.30;;;19.80;99.90;;;;;;4988744;28;20061;-84
2023/07/26 05:01:45;;;;;;;2.75;0.80;;;19.80;99.90;;;;;;4988617;28;20038;-85
2023/07/26 05:04:11;;;;;;;3.42;1.50;;;19.80;99.90;;;;;;4991158;28;20363;-85
2023/07/26 05:06:36;;;;;;;5.53;1.30;;;19.80;99.90;;;;;;4990182;28;20033;-85
2023/07/26 05:09:04;;;;;;;3.20;1.23;;;19.80;99.90;;;;;;4989825;28;20508;-84
2023/07/26 05:11:31;;;;;;;4.72;1.30;;;19.90;99.90;;;;;;4991147;28;20026;-85
2023/07/26 05:13:56;;;;;;;2.15;1.38;;;19.90;99.90;;;;;;4990032;28;20041;-83
2023/07/26 05:16:22;;;;;;;7.65;1.42;;;19.90;99.90;;;;;;4989778;28;20031;-83
2023/07/26 05:18:47;;;;;;;2.90;1.35;;;19.90;99.90;;;;;;4989630;28;20027;-83
2023/07/26 05:21:13;;;;;;;2.78;1.23;;;20.00;99.90;;;;;;4989855;28;20034;-84
2023/07/26 05:23:39;;;;;;;2.30;1.40;;;20.00;99.90;;;;;;4989507;28;20033;-83
2023/07/26 05:26:04;;;;;;;2.22;1.13;;;20.00;99.90;;;;;;4989650;28;20643;-83
2023/07/26 05:28:30;;;;;;;8.90;1.38;;;20.00;99.90;;;;;;4990783;28;20546;-84
2023/07/26 05:30:56;;;;;;;3.90;1.20;;;19.80;99.90;;;;;;4991116;28;20022;-83
2023/07/26 05:33:22;;;;;;;8.20;1.45;;;19.80;99.90;;;;;;4990621;28;20083;-83
2023/07/26 05:35:48;;;;;;;3.05;1.42;;;19.70;99.90;;;;;;4989299;28;20045;-84
2023/07/26 05:38:13;;;;;;;3.28;1.52;;;19.70;99.90;;;;;;4989530;28;20030;-84
2023/07/26 05:40:39;;;;;;;2.58;1.08;;;19.70;99.90;;;;;;4990279;28;20054;-84
2023/07/26 05:43:05;;;;;;;3.05;1.00;;;19.70;99.90;;;;;;4990602;28;20027;-83
2023/07/26 05:45:30;;;;;;;2.75;1.35;;;19.70;99.90;;;;;;4990351;28;20497;-83
2023/07/26 05:47:56;;;;;;;5.60;1.55;;;19.70;99.90;;;;;;4990308;28;20514;-83
2023/07/26 05:50:22;;;;;;;3.28;1.30;;;19.70;99.90;;;;;;4989136;28;20132;-84
2023/07/26 05:52:47;;;;;;;4.07;1.30;;;19.70;99.90;;;;;;4990092;28;20410;-84
2023/07/26 05:55:13;;;;;;;3.30;1.33;;;19.70;99.90;;;;;;4993258;28;20042;-84
2023/07/26 05:57:39;;;;;;;5.82;2.15;;;19.60;99.90;;;;;;4993598;28;20091;-83
2023/07/26 06:00:05;;;;;;;4.38;1.33;;;19.60;99.90;;;;;;4990052;28;20121;-86
2023/07/26 06:02:31;;;;;;;5.22;1.70;;;19.60;99.90;;;;;;4989490;28;20103;-84
2023/07/26 06:04:57;;;;;;;1.77;0.90;;;19.60;99.90;;;;;;4990391;28;20448;-84
2023/07/26 06:07:22;;;;;;;3.97;1.50;;;19.50;99.90;;;;;;4989404;28;20053;-84
2023/07/26 06:09:48;;;;;;;2.97;1.35;;;19.60;99.90;;;;;;4990154;28;20495;-86
2023/07/26 06:12:14;;;;;;;2.30;1.33;;;19.60;99.90;;;;;;4990563;28;20037;-86
2023/07/26 06:14:39;;;;;;;13.82;2.03;;;19.70;99.90;;;;;;4989992;28;20042;-83
2023/07/26 06:17:05;;;;;;;5.18;1.17;;;19.80;99.90;;;;;;4989846;28;20026;-83
2023/07/26 06:19:31;;;;;;;5.95;1.50;;;20.00;99.90;;;;;;4990247;28;20026;-85
2023/07/26 06:21:56;;;;;;;3.45;1.60;;;20.10;99.90;;;;;;4990081;28;20022;-83
2023/07/26 06:24:26;;;;;;;4.40;1.50;;;20.20;99.90;;;;;;4989988;28;20448;-83
2023/07/26 06:26:52;;;;;;;4.20;1.55;;;20.20;99.90;;;;;;4990066;28;20418;-83
2023/07/26 06:29:18;;;;;;;3.35;1.67;;;20.30;99.90;;;;;;4989824;28;20514;-83
2023/07/26 06:31:44;;;;;;;3.58;1.65;;;20.30;99.90;;;;;;4990144;28;20026;-82
2023/07/26 06:34:09;;;;;;;3.10;1.50;;;20.30;99.90;;;;;;4990050;28;20060;-83
2023/07/26 06:36:35;;;;;;;4.05;1.55;;;20.30;99.90;;;;;;4988489;28;20034;-83
2023/07/26 06:39:01;;;;;;;7.70;2.05;;;20.30;99.90;;;;;;4989886;28;20474;-83
2023/07/26 06:41:27;;;;;;;7.25;2.80;;;20.30;99.90;;;;;;4989716;28;20079;-83
2023/07/26 06:43:52;;;;;;;7.22;1.90;;;20.30;99.90;;;;;;4988805;28;20034;-83
2023/07/26 06:46:18;;;;;;;7.45;2.15;;;20.20;99.90;;;;;;4988801;28;20030;-84
2023/07/26 06:48:44;;;;;;;7.30;2.38;;;20.20;99.90;;;;;;4989651;28;20076;-83
2023/07/26 06:51:09;;;;;;;5.47;2.33;;;20.10;99.90;;;;;;4989872;28;20395;-81
2023/07/26 06:53:35;;;;;;;6.60;2.45;;;20.20;99.90;;;;;;4988649;28;20023;-81
2023/07/26 06:56:01;;;;;;;4.43;1.67;;;20.30;99.90;;;;;;4989482;28;20046;-83
2023/07/26 06:58:27;;;;;;;4.97;2.22;;;20.50;99.90;;;;;;4989720;28;20022;-83
2023/07/26 07:00:54;;;;;;;7.30;1.88;;;20.60;99.90;;;;;;4988182;28;20054;-83
2023/07/26 07:03:20;;;;;;;6.97;2.00;;;20.80;99.90;;;;;;4989344;28;20155;-82
2023/07/26 07:05:46;;;;;;;3.53;1.77;;;20.80;99.90;;;;;;4987397;28;20495;-83
2023/07/26 07:08:12;;;;;;;4.72;2.08;;;20.90;99.90;;;;;;4988448;28;20023;-82
2023/07/26 07:10:37;;;;;;;6.82;1.80;;;20.90;99.90;;;;;;4989667;28;20030;-83
2023/07/26 07:13:03;;;;;;;7.63;1.88;;;20.90;99.90;;;;;;4988983;28;20034;-82
2023/07/26 07:15:29;;;;;;;2.40;1.33;;;21.00;99.90;;;;;;4988006;28;20049;-83
2023/07/26 07:17:55;;;;;;;3.38;2.08;;;21.10;99.90;;;;;;4989223;28;20017;-83
2023/07/26 07:20:21;;;;;;;5.13;1.50;;;21.10;99.90;;;;;;4988118;28;20030;-83
2023/07/26 07:22:47;;;;;;;5.72;2.38;;;21.20;99.90;;;;;;4988059;28;20022;-83
2023/07/26 07:25:12;;;;;;;3.80;1.73;;;21.30;99.90;;;;;;4987464;28;20117;-82
2023/07/26 07:27:38;;;;;;;4.28;2.10;;;21.50;99.90;;;;;;4987654;28;20082;-82
2023/07/26 07:30:05;;;;;;;4.25;2.15;;;21.60;99.90;;;;;;4988830;28;20083;-82
2023/07/26 07:32:31;;;;;;;4.60;1.80;;;21.70;99.90;;;;;;4989236;28;20022;-82
2023/07/26 07:34:57;;;;;;;8.05;1.80;;;21.80;99.90;;;;;;4988847;28;20454;-81
2023/07/26 07:37:22;;;;;;;4.60;1.90;;;21.90;99.90;;;;;;4987353;28;20137;-84
2023/07/26 07:39:48;;;;;;;3.30;1.75;;;22.00;99.90;;;;;;4988890;28;20034;-84
2023/07/26 07:42:14;;;;;;;3.53;1.77;;;21.90;99.90;;;;;;4988410;28;20046;-85
2023/07/26 07:44:40;;;;;;;4.50;1.83;;;22.00;99.90;;;;;;4986547;28;20495;-85
2023/07/26 07:47:05;;;;;;;3.70;1.63;;;22.10;99.90;;;;;;4985897;28;20414;-82
2023/07/26 07:49:31;;;;;;;3.45;1.88;;;22.20;99.90;;;;;;4988390;28;20037;-81
2023/07/26 07:51:57;;;;;;;3.78;1.27;;;22.30;99.90;;;;;;4987089;28;20034;-82
2023/07/26 07:54:22;;;;;;;2.83;1.60;;;22.30;99.90;;;;;;4988369;28;20031;-85
2023/07/26 07:56:48;;;;;;;3.70;1.83;;;22.40;99.90;;;;;;4987631;28;20045;-82
2023/07/26 07:59:14;;;;;;;5.32;1.75;;;22.30;99.90;;;;;;4987239;28;20022;-82
2023/07/26 08:01:39;;;;;;;2.28;1.00;;;22.30;99.90;;;;;;4988148;28;20487;-83
2023/07/26 08:04:06;;;;;;;5.15;2.05;;;22.30;99.90;;;;;;4988461;28;20023;-82
2023/07/26 08:06:32;;;;;;;2.97;1.40;;;22.30;99.90;;;;;;4986989;28;20474;-82
2023/07/26 08:08:58;;;;;;;4.28;1.75;;;22.30;99.90;;;;;;4988182;28;20023;-82
2023/07/26 08:11:24;;;;;;;3.88;1.63;;;22.30;99.90;;;;;;4988427;28;20513;-85
2023/07/26 08:13:49;;;;;;;3.80;1.77;;;22.30;99.90;;;;;;4987023;28;20030;-85
2023/07/26 08:16:15;;;;;;;3.17;1.42;;;22.30;99.90;;;;;;4988438;28;20076;-85
2023/07/26 08:18:41;;;;;;;5.20;2.13;;;22.30;99.90;;;;;;4991268;28;20030;-82
2023/07/26 08:21:06;;;;;;;2.80;1.48;;;22.20;99.90;;;;;;4991423;28;20031;-84
2023/07/26 08:23:32;;;;;;;6.00;2.65;;;22.10;99.90;;;;;;4990004;28;20022;-81
2023/07/26 08:26:05;;;;;;;7.30;1.65;;;22.00;99.90;;;;;;4990082;28;20095;-82
2023/07/26 08:28:31;;;;;;;5.93;1.70;;;21.80;99.90;;;;;;4991398;28;20030;-82
2023/07/26 08:30:57;;;;;;;2.65;1.58;;;21.70;99.90;;;;;;4991587;28;20403;-82
2023/07/26 08:33:23;;;;;;;6.45;1.77;;;21.60;99.90;;;;;;4991090;28;20450;-82
2023/07/26 08:35:48;;;;;;;8.45;2.60;;;21.50;99.90;;;;;;4990267;28;20046;-83
2023/07/26 08:38:14;;;;;;;3.80;1.88;;;21.40;99.90;;;;;;4990842;28;20023;-84
2023/07/26 08:40:46;;;;;;;6.40;2.17;;;21.40;99.90;;;;;;4990675;28;20058;-83
2023/07/26 08:43:13;;;;;;;4.25;2.10;;;21.40;99.90;;;;;;4991920;28;20031;-83
2023/07/26 08:45:40;;;;;;;5.30;1.88;;;21.40;99.90;;;;;;4991520;28;20027;-83
2023/07/26 08:48:07;;;;;;;4.65;1.77;;;21.40;99.90;;;;;;4990725;28;20042;-83
2023/07/26 08:50:34;;;;;;;4.68;2.10;;;21.40;99.90;;;;;;4990288;28;20479;-83
2023/07/26 08:53:03;;;;;;;3.13;1.60;;;21.50;99.90;;;;;;4990136;28;20068;-83
2023/07/26 08:55:29;;;;;;;5.28;1.90;;;21.50;99.90;;;;;;4990006;28;20042;-81
2023/07/26 08:57:55;;;;;;;6.82;2.13;;;21.50;99.90;;;;;;4991212;28;20027;-83
2023/07/26 09:00:20;;;;;;;5.75;1.83;;;21.50;99.90;;;;;;4991111;28;20083;-83
2023/07/26 09:02:48;;;;;;;3.03;1.38;;;21.60;99.90;;;;;;4989703;28;20035;-83
2023/07/26 09:05:13;;;;;;;4.07;1.52;;;21.60;99.90;;;;;;4991069;28;20492;-83
2023/07/26 09:07:39;;;;;;;6.07;1.63;;;21.60;99.90;;;;;;4989713;28;20114;-82
2023/07/26 09:10:05;;;;;;;3.10;1.50;;;21.70;99.90;;;;;;4989547;28;20034;-83
2023/07/26 09:12:31;;;;;;;2.88;1.38;;;21.70;99.90;;;;;;4990660;28;20027;-83
2023/07/26 09:14:58;;;;;;;3.85;1.45;;;21.60;99.90;;;;;;4990786;28;20066;-83
2023/07/26 09:18:01;;;;;;;2.63;1.35;;;21.60;99.90;;;;;;4990938;28;20034;-82
2023/07/26 09:20:27;;;;;;;2.88;1.40;;;21.60;99.90;;;;;;4979873;28;20043;-82
2023/07/26 09:23:06;;;;;;;2.83;1.50;;;21.50;99.90;;;;;;4989689;28;20052;-83
2023/07/26 09:25:37;;;;;;;8.18;1.55;;;21.50;99.90;;;;;;4990909;28;20029;-83
2023/07/26 09:28:03;;;;;;;2.90;1.55;;;21.60;99.90;;;;;;4988316;28;20042;-83
2023/07/26 09:30:33;;;;;;;1.65;1.17;;;21.70;99.90;;;;;;4989618;28;20025;-82
2023/07/26 09:33:01;;;;;;;2.50;1.65;;;21.70;99.90;;;;;;4991200;28;20562;-84
2023/07/26 09:35:26;;;;;;;4.93;1.73;;;21.80;99.90;;;;;;4990778;28;20034;-83
2023/07/26 09:37:52;;;;;;;3.80;1.67;;;21.90;99.90;;;;;;4989486;28;20034;-83
2023/07/26 09:40:30;;;;;;;5.03;1.63;;;22.10;99.90;;;;;;4991719;28;20038;-83
2023/07/26 09:42:56;;;;;;;5.13;1.40;;;22.40;99.90;;;;;;4990446;28;20030;-83
2023/07/26 09:45:24;;;;;;;2.85;1.25;;;22.60;99.90;;;;;;4990149;28;20033;-83
2023/07/26 09:47:51;;;;;;;3.05;1.30;;;22.70;99.90;;;;;;4988958;28;20776;-85
2023/07/26 09:50:25;;;;;;;3.10;1.02;;;22.70;99.90;;;;;;4988933;28;20498;-85
2023/07/26 09:52:55;;;;;;;2.40;1.33;;;22.70;99.90;;;;;;4989038;28;20019;-85
2023/07/26 09:55:28;;;;;;;2.35;1.10;;;22.60;99.90;;;;;;4987601;28;20038;-84
2023/07/26 09:57:55;;;;;;;4.88;1.45;;;22.60;99.90;;;;;;4989773;28;20026;-84
2023/07/26 10:00:23;;;;;;;2.60;1.30;;;22.70;99.90;;;;;;4989664;28;20045;-85
2023/07/26 10:02:55;;;;;;;3.55;1.50;;;22.60;99.90;;;;;;4989676;28;20033;-83
2023/07/26 10:05:24;;;;;;;1.90;0.90;;;22.60;99.90;;;;;;4988695;28;20022;-83
2023/07/26 10:07:51;;;;;;;4.90;1.10;;;22.30;99.90;;;;;;4989839;28;20018;-82
2023/07/26 10:10:18;;;;;;;3.20;1.17;;;22.10;99.90;;;;;;4989790;28;20022;-83
2023/07/26 10:12:46;;;;;;;2.70;1.10;;;21.80;99.90;;;;;;4988690;28;20035;-83
2023/07/26 10:15:16;;;;;;;2.88;1.20;;;21.70;99.90;;;;;;4989741;28;20499;-83
2023/07/26 10:17:47;;;;;;;1.35;1.00;;;21.60;99.90;;;;;;4989584;28;20030;-83
2023/07/26 10:20:14;;;;;;;6.15;1.05;;;21.40;99.90;;;;;;4989550;28;20034;-81
2023/07/26 10:22:41;;;;;;;3.10;0.85;;;21.40;99.90;;;;;;4989712;28;20023;-83
2023/07/26 10:25:08;;;;;;;2.05;1.08;;;21.30;99.90;;;;;;4989352;28;20026;-83
2023/07/26 10:27:35;;;;;;;4.43;1.33;;;21.10;99.90;;;;;;4989574;28;20402;-83
2023/07/26 10:30:01;;;;;;;3.03;1.48;;;21.00;99.90;;;;;;4987346;28;20026;-83
2023/07/26 10:32:27;;;;;;;3.22;1.13;;;21.00;99.90;;;;;;4986930;28;20034;-83
2023/07/26 10:34:56;;;;;;;4.18;1.45;;;20.90;99.90;;;;;;4988329;28;20031;-83
2023/07/26 10:37:23;;;;;;;2.70;1.05;;;20.90;99.90;;;;;;4989560;28;20029;-83
2023/07/26 10:39:49;;;;;;;2.30;1.38;;;20.90;99.90;;;;;;4987819;28;20030;-83
2023/07/26 10:42:25;;;;;;;3.30;1.77;;;20.80;99.90;;;;;;4988115;28;20115;-81
2023/07/26 10:44:57;;;;;;;2.03;1.10;;;20.80;99.90;;;;;;4990327;28;20022;-83
2023/07/26 10:47:23;;;;;;;2.55;1.38;;;20.80;99.90;;;;;;4989341;28;20038;-82
2023/07/26 10:49:49;;;;;;;4.07;1.17;;;20.80;99.90;;;;;;4988687;28;20037;-82
2023/07/26 10:52:16;;;;;;;2.63;1.40;;;20.80;99.90;;;;;;4988010;28;20042;-83
2023/07/26 10:54:43;;;;;;;1.85;0.98;;;20.80;99.90;;;;;;4987956;28;20105;-83
2023/07/26 10:57:31;;;;;;;3.10;0.80;;;20.80;99.90;;;;;;4988196;28;20053;-82
2023/07/26 11:00:10;;;;;;;1.77;1.10;;;20.80;99.90;;;;;;4987995;28;20117;-82
2023/07/26 11:02:46;;;;;;;2.10;0.93;;;20.80;99.90;;;;;;4987586;28;20033;-83
2023/07/26 11:05:20;;;;;;;3.17;1.00;;;20.80;99.90;;;;;;4989086;28;20107;-82
2023/07/26 11:08:02;;;;;;;2.70;1.13;;;20.80;99.90;;;;;;4987764;28;20030;-82
2023/07/26 11:10:32;;;;;;;2.65;1.20;;;20.90;99.90;;;;;;4988696;28;20026;-83
2023/07/26 11:13:15;;;;;;;2.30;0.82;;;21.10;99.90;;;;;;4988859;28;20507;-83
2023/07/26 11:15:46;;;;;;;1.80;1.10;;;21.10;99.90;;;;;;4988496;28;20049;-83
2023/07/26 11:18:13;;;;;;;2.17;1.00;;;21.20;99.90;;;;;;4987322;28;20026;-82
2023/07/26 11:20:40;;;;;;;4.13;0.93;;;21.30;99.90;;;;;;4987540;28;20451;-82
2023/07/26 11:23:22;;;;;;;1.55;0.77;;;21.40;99.90;;;;;;4987494;28;20026;-83
2023/07/26 11:25:52;;;;;;;1.80;0.90;;;21.50;99.90;;;;;;4987138;28;20026;-83
2023/07/26 11:28:19;;;;;;;2.50;1.30;;;21.50;99.90;;;;;;4986060;28;20506;-82
2023/07/26 11:30:53;;;;;;;1.88;1.00;;;21.60;99.90;;;;;;4987158;28;20509;-82
2023/07/26 11:33:36;;;;;;;2.15;1.27;;;21.90;99.90;;;;;;4986491;28;20022;-83
2023/07/26 11:36:04;;;;;;;2.88;1.65;;;22.10;99.90;;;;;;4988200;28;20095;-82
2023/07/26 11:38:30;;;;;;;1.75;0.95;;;22.30;99.90;;;;;;4988390;28;20026;-83
2023/07/26 11:40:56;;;;;;;1.75;0.90;;;22.50;99.90;;;;;;4988299;28;20058;-81
2023/07/26 11:43:29;;;;;;;3.42;0.90;;;22.60;99.90;;;;;;4988487;28;20038;-82
2023/07/26 11:45:56;;;;;;;2.80;0.90;;;22.60;99.90;;;;;;4987176;28;20510;-83
2023/07/26 11:48:24;;;;;;;4.05;1.20;;;22.60;99.90;;;;;;4987274;28;20121;-83
2023/07/26 11:50:54;;;;;;;1.88;0.90;;;22.50;99.90;;;;;;4987923;28;20029;-82
2023/07/26 11:53:28;;;;;;;1.95;1.00;;;22.60;99.90;;;;;;4991616;28;20571;-80
2023/07/26 11:55:54;;;;;;;5.68;1.60;;;22.60;99.90;;;;;;4990770;28;20034;-83
2023/07/26 11:58:19;;;;;;;3.47;0.90;;;22.60;99.90;;;;;;4990511;28;20514;-82
2023/07/26 12:00:46;;;;;;;2.55;1.10;;;22.50;99.90;;;;;;4991866;28;20304;-82
2023/07/26 12:03:12;;;;;;;2.60;1.27;;;22.40;99.90;;;;;;4991996;28;20030;-82
2023/07/26 12:05:44;;;;;;;1.92;1.33;;;22.40;99.90;;;;;;4990424;28;20034;-83
2023/07/26 12:08:10;;;;;;;2.28;1.05;;;22.50;99.90;;;;;;4991945;28;20026;-82
2023/07/26 12:10:37;;;;;;;3.40;2.05;;;22.60;99.90;;;;;;4991753;28;20027;-83
2023/07/26 12:13:08;;;;;;;2.75;1.00;;;22.80;99.90;;;;;;4990674;28;20491;-82
2023/07/26 12:15:54;;;;;;;1.48;0.90;;;23.00;99.90;;;;;;4991562;28;20035;-82
2023/07/26 12:18:24;;;;;;;4.60;1.35;;;23.30;99.90;;;;;;4990373;28;20022;-83
2023/07/26 12:21:07;;;;;;;4.03;0.80;;;23.70;99.90;;;;;;4990156;28;20030;-82
2023/07/26 12:23:58;;;;;;;3.20;1.15;;;24.00;99.90;;;;;;4990097;28;20027;-83
2023/07/26 12:26:31;;;;;;;4.72;0.77;;;24.20;99.90;;;;;;4991383;28;20026;-83
2023/07/26 12:28:58;;;;;;;2.20;1.13;;;24.40;99.90;;;;;;4991598;28;20034;-83
2023/07/26 12:31:28;;;;;;;3.50;0.85;;;24.70;99.90;;;;;;4990028;28;20452;-83
2023/07/26 12:33:59;;;;;;;2.53;1.02;;;24.80;99.90;;;;;;4991299;28;20495;-83
2023/07/26 12:36:31;;;;;;;1.77;1.10;;;24.80;98.90;;;;;;4989837;28;20408;-83
2023/07/26 12:38:57;;;;;;;5.35;0.77;;;24.80;98.90;;;;;;4989890;28;20474;-82
2023/07/26 12:41:24;;;;;;;8.52;0.90;;;24.90;99.50;;;;;;4990927;28;20514;-82
2023/07/26 12:43:55;;;;;;;5.88;1.15;;;25.00;99.20;;;;;;4989785;28;20035;-83
2023/07/26 12:46:21;;;;;;;2.45;0.88;;;25.00;97.40;;;;;;4990823;28;20030;-83